Time;durP1;ratioP1;P1;durP2;ratioP2;P2;SDS_P1;SDS_P2;PMS_P1;PMS_P2;Temp;Humidity;BMP_temperature;BMP_pressure;BME280_temperature;BME280_humidity;BME280_pressure;Samples;Min_cycle;Max_cycle;Signal;HPM_P1;HPM_P2
2020/12/02 00:01:24;;;;;;;5.85;3.50;;;5.30;99.90;;;;;;5069411;28;20035;-50
2020/12/02 00:04:26;;;;;;;5.25;3.45;;;5.40;99.90;;;;;;5069410;28;20021;-47
2020/12/02 00:06:54;;;;;;;5.25;3.60;;;5.30;99.90;;;;;;5006904;28;20464;-49
2020/12/02 00:09:22;;;;;;;5.88;3.95;;;5.30;99.90;;;;;;5059613;28;20036;-48
2020/12/02 00:11:49;;;;;;;6.10;4.28;;;5.40;99.90;;;;;;5089342;28;20034;-51
2020/12/02 00:14:28;;;;;;;6.85;4.28;;;5.30;99.90;;;;;;5089397;28;20039;-50
2020/12/02 00:16:55;;;;;;;5.18;3.75;;;5.10;99.90;;;;;;5089566;28;20056;-51
2020/12/02 00:19:22;;;;;;;6.82;4.32;;;5.30;99.90;;;;;;5087528;28;20102;-50
2020/12/02 00:22:11;;;;;;;5.88;4.30;;;5.30;99.90;;;;;;5089594;28;20024;-48
2020/12/02 00:24:37;;;;;;;6.53;4.45;;;5.20;99.90;;;;;;5089431;28;20118;-49
2020/12/02 00:27:07;;;;;;;5.63;4.20;;;5.10;99.90;;;;;;5090018;28;20039;-50
2020/12/02 00:29:33;;;;;;;7.20;4.65;;;5.20;99.90;;;;;;5070223;28;20077;-49
2020/12/02 00:31:58;;;;;;;7.90;5.38;;;5.20;99.90;;;;;;5069314;28;20028;-51
2020/12/02 00:34:24;;;;;;;7.15;4.82;;;5.20;99.90;;;;;;5068499;28;20028;-48
2020/12/02 00:36:50;;;;;;;7.22;4.50;;;5.10;99.90;;;;;;5068985;28;20474;-49
2020/12/02 00:39:15;;;;;;;6.20;4.28;;;5.10;99.90;;;;;;5066835;28;20468;-49
2020/12/02 00:41:44;;;;;;;7.82;4.32;;;5.10;99.90;;;;;;5068822;28;20086;-51
2020/12/02 00:44:10;;;;;;;7.10;4.53;;;5.20;99.90;;;;;;5068577;28;20097;-47
2020/12/02 00:46:36;;;;;;;6.28;4.30;;;4.90;99.90;;;;;;5068909;28;20654;-47
2020/12/02 00:49:02;;;;;;;6.97;4.57;;;5.10;99.90;;;;;;5068897;28;20060;-47
2020/12/02 00:51:27;;;;;;;6.85;4.47;;;5.20;99.90;;;;;;5068419;28;20114;-48
2020/12/02 00:53:53;;;;;;;8.10;4.55;;;5.10;99.90;;;;;;5068486;28;20025;-46
2020/12/02 00:56:20;;;;;;;7.93;4.15;;;5.10;99.90;;;;;;5068097;28;20019;-48
2020/12/02 00:59:16;;;;;;;5.88;4.13;;;5.10;99.90;;;;;;5068373;28;20029;-51
2020/12/02 01:02:17;;;;;;;6.18;4.30;;;5.00;99.90;;;;;;5067710;28;20025;-49
2020/12/02 01:04:46;;;;;;;6.57;4.13;;;5.00;99.90;;;;;;5047924;28;20055;-46
2020/12/02 01:07:13;;;;;;;7.22;4.72;;;5.00;99.90;;;;;;5068122;28;20048;-48
2020/12/02 01:09:39;;;;;;;4.85;3.80;;;5.10;99.90;;;;;;5080849;28;20466;-48
2020/12/02 01:12:06;;;;;;;5.55;3.92;;;5.00;99.90;;;;;;5088177;28;20039;-48
2020/12/02 01:14:32;;;;;;;5.20;3.63;;;4.90;99.90;;;;;;5088961;28;20078;-48
2020/12/02 01:17:00;;;;;;;5.20;3.60;;;5.00;99.90;;;;;;5079931;28;20034;-47
2020/12/02 01:19:30;;;;;;;5.70;4.00;;;5.00;99.90;;;;;;5067465;28;20033;-47
2020/12/02 01:22:22;;;;;;;6.50;4.13;;;5.00;99.90;;;;;;5068205;28;20348;-46
2020/12/02 01:24:57;;;;;;;6.00;3.58;;;5.00;99.90;;;;;;5067980;28;20028;-47
2020/12/02 01:28:00;;;;;;;5.05;3.30;;;5.00;99.90;;;;;;5067382;28;20028;-47
2020/12/02 01:30:26;;;;;;;6.25;4.07;;;4.90;99.90;;;;;;5005321;28;20026;-46
2020/12/02 01:32:52;;;;;;;5.88;3.53;;;4.90;99.90;;;;;;5055722;28;20086;-50
2020/12/02 01:35:22;;;;;;;5.28;3.58;;;4.90;99.90;;;;;;5067645;28;20024;-49
2020/12/02 01:37:54;;;;;;;5.97;3.72;;;5.00;99.90;;;;;;5067327;28;20055;-49
2020/12/02 01:40:23;;;;;;;6.15;4.03;;;4.90;99.90;;;;;;5067460;28;20537;-49
2020/12/02 01:42:55;;;;;;;6.53;3.90;;;4.80;99.90;;;;;;5067722;28;20024;-48
2020/12/02 01:45:27;;;;;;;6.78;3.92;;;4.70;99.90;;;;;;5067485;28;20035;-47
2020/12/02 01:48:14;;;;;;;9.55;5.35;;;4.80;99.90;;;;;;5067508;28;20033;-46
2020/12/02 01:51:11;;;;;;;8.68;4.43;;;4.80;99.90;;;;;;5067905;28;20040;-47
2020/12/02 01:54:07;;;;;;;6.93;4.60;;;4.80;99.90;;;;;;5067328;28;20032;-48
2020/12/02 01:56:41;;;;;;;8.98;5.00;;;4.80;99.90;;;;;;5067743;28;20033;-50
2020/12/02 01:59:35;;;;;;;5.75;4.03;;;4.70;99.90;;;;;;5067222;28;20020;-47
2020/12/02 02:02:14;;;;;;;6.75;4.45;;;4.80;99.90;;;;;;5067936;28;20059;-48
2020/12/02 02:05:03;;;;;;;5.93;4.05;;;4.80;99.90;;;;;;5067211;28;20028;-47
2020/12/02 02:07:31;;;;;;;8.07;4.38;;;4.80;99.90;;;;;;5067178;28;20063;-50
2020/12/02 02:10:01;;;;;;;6.18;4.10;;;4.70;99.90;;;;;;5067679;28;20029;-48
2020/12/02 02:12:36;;;;;;;7.10;4.20;;;4.70;99.90;;;;;;5085826;28;20020;-47
2020/12/02 02:15:12;;;;;;;7.20;4.15;;;4.80;99.90;;;;;;5085874;28;20478;-48
2020/12/02 02:17:37;;;;;;;7.95;4.10;;;4.80;99.90;;;;;;5066882;28;20016;-46
2020/12/02 02:20:05;;;;;;;8.57;4.47;;;4.80;99.90;;;;;;5067587;28;20025;-50
2020/12/02 02:22:31;;;;;;;6.57;4.05;;;4.80;99.90;;;;;;5067334;28;20025;-48
2020/12/02 02:24:57;;;;;;;6.07;3.97;;;4.90;99.90;;;;;;5067564;28;20516;-47
2020/12/02 02:27:26;;;;;;;6.07;3.47;;;4.70;99.90;;;;;;5066708;28;20387;-48
2020/12/02 02:29:52;;;;;;;6.47;4.05;;;4.70;99.90;;;;;;5066954;28;20028;-49
2020/12/02 02:32:24;;;;;;;12.18;5.70;;;4.80;99.90;;;;;;5074007;28;20085;-50
2020/12/02 02:34:56;;;;;;;27.00;12.57;;;4.70;99.90;;;;;;5086893;28;20104;-49
2020/12/02 02:37:25;;;;;;;19.90;9.60;;;4.30;99.90;;;;;;5086605;28;20115;-50
2020/12/02 02:39:52;;;;;;;19.95;9.55;;;4.40;99.90;;;;;;5087067;28;20020;-47
2020/12/02 02:42:43;;;;;;;18.40;8.68;;;4.60;99.90;;;;;;5085466;28;20428;-47
2020/12/02 02:45:26;;;;;;;19.58;8.63;;;4.70;99.90;;;;;;5079593;28;20132;-49
2020/12/02 02:47:57;;;;;;;12.27;6.38;;;4.60;99.90;;;;;;5085460;28;20119;-48
2020/12/02 02:50:24;;;;;;;11.00;6.00;;;4.60;99.90;;;;;;5066240;28;20024;-47
2020/12/02 02:52:50;;;;;;;10.82;5.55;;;4.40;99.90;;;;;;5066232;28;20032;-48
2020/12/02 02:55:20;;;;;;;10.48;5.30;;;4.40;99.90;;;;;;5066225;28;20095;-47
2020/12/02 02:57:46;;;;;;;8.07;4.50;;;4.40;99.90;;;;;;5066315;28;20098;-47
2020/12/02 03:00:17;;;;;;;9.27;4.93;;;4.30;99.90;;;;;;5079237;28;20063;-47
2020/12/02 03:02:43;;;;;;;7.30;4.25;;;4.10;99.90;;;;;;5086247;28;20187;-48
2020/12/02 03:05:09;;;;;;;8.30;4.60;;;4.20;99.90;;;;;;5085473;28;20023;-47
2020/12/02 03:07:40;;;;;;;8.38;4.55;;;4.10;99.90;;;;;;5086501;28;20039;-48
2020/12/02 03:10:06;;;;;;;7.43;4.22;;;4.00;99.90;;;;;;5073874;28;20036;-51
2020/12/02 03:12:32;;;;;;;7.20;4.15;;;4.10;99.90;;;;;;5066655;28;20035;-51
2020/12/02 03:14:58;;;;;;;6.35;4.18;;;4.40;99.90;;;;;;5066303;28;20020;-49
2020/12/02 03:17:25;;;;;;;5.38;3.47;;;4.30;99.90;;;;;;5065732;28;20032;-50
2020/12/02 03:20:16;;;;;;;6.35;3.88;;;4.40;99.90;;;;;;5065976;28;20052;-47
2020/12/02 03:22:43;;;;;;;6.57;3.90;;;4.40;99.90;;;;;;5065799;28;20047;-50
2020/12/02 03:25:13;;;;;;;8.30;5.00;;;4.40;99.90;;;;;;5074769;28;20023;-52
2020/12/02 03:27:39;;;;;;;12.23;6.18;;;4.50;99.90;;;;;;5086163;28;20035;-49
2020/12/02 03:30:05;;;;;;;12.25;5.93;;;4.40;99.90;;;;;;5076312;28;20029;-48
2020/12/02 03:32:30;;;;;;;8.48;4.93;;;4.40;99.90;;;;;;5065864;28;20029;-51
2020/12/02 03:34:56;;;;;;;9.40;4.90;;;4.40;99.90;;;;;;5065717;28;20074;-51
2020/12/02 03:37:21;;;;;;;14.77;6.93;;;4.50;99.90;;;;;;5065948;28;20052;-47
2020/12/02 03:39:47;;;;;;;16.10;7.38;;;4.60;99.90;;;;;;5065921;28;20020;-51
2020/12/02 03:42:13;;;;;;;26.02;10.32;;;4.40;99.90;;;;;;5065577;28;20036;-47
2020/12/02 03:44:38;;;;;;;24.92;10.38;;;4.20;99.90;;;;;;5065859;28;20503;-47
2020/12/02 03:47:05;;;;;;;28.55;10.82;;;4.00;99.90;;;;;;5065713;28;20037;-47
2020/12/02 03:49:30;;;;;;;35.30;13.50;;;4.10;99.90;;;;;;5065883;28;20051;-49
2020/12/02 03:51:56;;;;;;;23.63;10.15;;;4.40;99.90;;;;;;5065762;28;20029;-49
2020/12/02 03:54:22;;;;;;;24.23;10.18;;;4.30;99.90;;;;;;5065503;28;20029;-50
2020/12/02 03:56:47;;;;;;;22.83;9.35;;;4.30;99.90;;;;;;5065767;28;20699;-51
2020/12/02 03:59:13;;;;;;;24.77;11.05;;;4.20;99.90;;;;;;5065388;28;20082;-50
2020/12/02 04:01:39;;;;;;;19.15;9.32;;;4.10;99.90;;;;;;5065741;28;20554;-50
2020/12/02 04:04:04;;;;;;;21.15;9.43;;;4.20;99.90;;;;;;5065187;28;20033;-50
2020/12/02 04:06:30;;;;;;;18.77;8.05;;;4.20;99.90;;;;;;5066274;28;20509;-47
2020/12/02 04:08:56;;;;;;;16.10;7.03;;;4.30;99.90;;;;;;5065264;28;20032;-49
2020/12/02 04:11:21;;;;;;;11.30;5.82;;;4.40;99.90;;;;;;5065203;28;20032;-50
2020/12/02 04:13:47;;;;;;;11.52;5.93;;;4.50;99.90;;;;;;5065700;28;20029;-49
2020/12/02 04:16:13;;;;;;;9.77;5.72;;;4.60;99.90;;;;;;5064594;28;20027;-48
2020/12/02 04:18:39;;;;;;;9.40;4.85;;;4.50;99.90;;;;;;5065472;28;20472;-48
2020/12/02 04:21:04;;;;;;;9.40;4.80;;;4.50;99.90;;;;;;5065252;28;20031;-47
2020/12/02 04:23:30;;;;;;;7.47;3.60;;;4.50;99.90;;;;;;5066109;28;20032;-48
2020/12/02 04:25:56;;;;;;;8.57;4.43;;;4.50;99.90;;;;;;5065558;28;20036;-48
2020/12/02 04:28:21;;;;;;;8.77;4.85;;;4.20;99.90;;;;;;5065194;28;20118;-49
2020/12/02 04:30:47;;;;;;;7.68;4.18;;;4.00;99.90;;;;;;5065249;28;20108;-47
2020/12/02 04:33:14;;;;;;;7.30;4.10;;;4.10;99.90;;;;;;5064765;28;20040;-48
2020/12/02 04:35:40;;;;;;;6.70;4.03;;;4.20;99.90;;;;;;5066711;28;20378;-49
2020/12/02 04:38:08;;;;;;;5.97;3.53;;;4.30;99.90;;;;;;5068726;28;20099;-51
2020/12/02 04:40:37;;;;;;;6.35;3.97;;;4.30;99.90;;;;;;5069122;28;20028;-51
2020/12/02 04:43:21;;;;;;;6.43;3.80;;;4.30;99.90;;;;;;5079180;28;20036;-47
2020/12/02 04:45:49;;;;;;;5.90;3.80;;;4.20;99.90;;;;;;5069939;28;20071;-50
2020/12/02 04:48:18;;;;;;;4.97;3.38;;;4.00;99.90;;;;;;5068454;28;20036;-48
2020/12/02 04:50:44;;;;;;;6.95;3.92;;;4.20;99.90;;;;;;5068553;28;20406;-51
2020/12/02 04:53:21;;;;;;;6.78;4.22;;;4.30;99.90;;;;;;5075201;28;20040;-50
2020/12/02 04:55:50;;;;;;;6.22;3.28;;;4.10;99.90;;;;;;5068774;28;20479;-47
2020/12/02 04:58:25;;;;;;;5.70;3.47;;;4.10;99.90;;;;;;5068297;28;20104;-48
2020/12/02 05:00:51;;;;;;;4.15;2.65;;;4.10;99.90;;;;;;5068483;28;20445;-48
2020/12/02 05:03:18;;;;;;;4.20;2.90;;;4.20;99.90;;;;;;5068050;28;20033;-49
2020/12/02 05:05:44;;;;;;;5.95;3.47;;;4.20;99.90;;;;;;5068614;28;20047;-47
2020/12/02 05:08:24;;;;;;;5.10;3.22;;;4.20;99.90;;;;;;5081588;28;20028;-47
2020/12/02 05:10:51;;;;;;;5.85;3.53;;;4.10;99.90;;;;;;5088908;28;20117;-51
2020/12/02 05:13:18;;;;;;;6.22;3.63;;;4.20;99.90;;;;;;5069304;28;20035;-48
2020/12/02 05:15:43;;;;;;;5.43;2.97;;;4.30;99.90;;;;;;5068511;28;20021;-51
2020/12/02 05:18:15;;;;;;;5.05;3.17;;;4.40;99.90;;;;;;5084418;28;20515;-48
2020/12/02 05:20:42;;;;;;;5.28;3.40;;;4.50;99.90;;;;;;5088615;28;20020;-48
2020/12/02 05:23:10;;;;;;;5.38;3.45;;;4.50;99.90;;;;;;5083912;28;20142;-48
2020/12/02 05:25:36;;;;;;;6.22;3.72;;;4.20;99.90;;;;;;5071505;28;20039;-47
2020/12/02 05:28:20;;;;;;;6.10;4.15;;;4.20;99.90;;;;;;5078925;28;20043;-46
2020/12/02 05:30:46;;;;;;;4.68;3.35;;;4.00;99.90;;;;;;5088424;28;20424;-47
2020/12/02 05:33:12;;;;;;;5.03;3.03;;;4.20;99.90;;;;;;5086770;28;20040;-48
2020/12/02 05:36:13;;;;;;;5.82;3.35;;;4.30;99.90;;;;;;5087918;28;20043;-48
2020/12/02 05:38:47;;;;;;;5.15;3.22;;;4.40;99.90;;;;;;5062906;28;20051;-48
2020/12/02 05:41:14;;;;;;;;;;;4.40;99.90;;;;;;5084629;28;20027;-48
2020/12/02 05:43:52;;;;;;;4.88;3.20;;;4.40;99.90;;;;;;5066784;28;20347;-47
2020/12/02 05:46:32;;;;;;;5.55;3.35;;;4.40;99.90;;;;;;5066818;28;20436;-45
2020/12/02 05:49:07;;;;;;;4.00;3.13;;;4.30;99.90;;;;;;5074143;28;20024;-47
2020/12/02 05:51:34;;;;;;;4.47;3.10;;;4.20;99.90;;;;;;5076924;28;20036;-47
2020/12/02 05:54:08;;;;;;;4.13;2.90;;;4.10;99.90;;;;;;5067617;28;20077;-49
2020/12/02 05:56:34;;;;;;;4.00;2.60;;;4.20;99.90;;;;;;5067475;28;20028;-49
2020/12/02 05:59:01;;;;;;;4.22;2.80;;;4.30;99.90;;;;;;5074795;28;20119;-49
2020/12/02 06:01:28;;;;;;;4.22;2.63;;;4.30;99.90;;;;;;5087010;28;20498;-47
2020/12/02 06:03:56;;;;;;;4.72;2.88;;;4.30;99.90;;;;;;5082623;28;20426;-47
2020/12/02 06:06:22;;;;;;;3.45;2.53;;;4.30;99.90;;;;;;5067079;28;20031;-46
2020/12/02 06:08:50;;;;;;;4.57;2.83;;;4.20;99.90;;;;;;5066755;28;20059;-47
2020/12/02 06:11:16;;;;;;;3.72;2.47;;;4.20;99.90;;;;;;5067385;28;20429;-48
2020/12/02 06:13:52;;;;;;;4.63;2.90;;;4.30;99.90;;;;;;5069494;28;20035;-48
2020/12/02 06:16:17;;;;;;;4.32;2.88;;;4.20;99.90;;;;;;5066592;28;20132;-49
2020/12/02 06:18:43;;;;;;;3.08;2.45;;;4.40;99.90;;;;;;5068607;28;20116;-48
2020/12/02 06:21:36;;;;;;;3.67;2.63;;;4.40;99.90;;;;;;5080009;28;20081;-47
2020/12/02 06:24:02;;;;;;;5.95;3.13;;;4.50;99.90;;;;;;5084089;28;20055;-50
2020/12/02 06:27:01;;;;;;;3.80;2.65;;;4.40;99.90;;;;;;5083543;28;20486;-48
2020/12/02 06:29:33;;;;;;;4.38;2.85;;;4.50;99.90;;;;;;5034706;28;20033;-47
2020/12/02 06:32:13;;;;;;;3.72;2.63;;;4.80;99.90;;;;;;5066506;28;20044;-50
2020/12/02 06:34:39;;;;;;;5.13;3.05;;;4.90;99.90;;;;;;5066827;28;20056;-48
2020/12/02 06:37:26;;;;;;;7.65;3.38;;;4.90;99.90;;;;;;5066455;28;20063;-48
2020/12/02 06:39:56;;;;;;;3.40;2.40;;;5.00;99.90;;;;;;5066671;28;20021;-50
2020/12/02 06:42:35;;;;;;;4.28;2.90;;;4.70;99.90;;;;;;5086630;28;20036;-48
2020/12/02 06:45:15;;;;;;;6.22;3.72;;;4.80;99.90;;;;;;5085486;28;20085;-48
2020/12/02 06:47:50;;;;;;;7.10;4.95;;;4.80;99.90;;;;;;5087419;28;20031;-47
2020/12/02 06:50:20;;;;;;;5.30;3.80;;;4.50;99.90;;;;;;5082162;28;20028;-49
2020/12/02 06:52:46;;;;;;;5.53;3.47;;;4.60;99.90;;;;;;5066496;28;20111;-47
2020/12/02 06:55:17;;;;;;;5.60;3.53;;;4.50;99.90;;;;;;5066851;28;20123;-46
2020/12/02 06:57:43;;;;;;;4.80;3.22;;;4.40;99.90;;;;;;5066420;28;20032;-49
2020/12/02 07:00:21;;;;;;;3.65;2.70;;;4.50;99.90;;;;;;5066881;28;20028;-47
2020/12/02 07:02:54;;;;;;;3.83;2.58;;;4.40;99.90;;;;;;5074960;28;20602;-49
2020/12/02 07:05:42;;;;;;;3.95;2.97;;;4.30;99.90;;;;;;5076505;28;20025;-51
2020/12/02 07:08:11;;;;;;;4.35;2.78;;;4.10;99.90;;;;;;5066363;28;20040;-48
2020/12/02 07:10:38;;;;;;;4.18;2.70;;;4.20;99.90;;;;;;5077321;28;20548;-48
2020/12/02 07:13:04;;;;;;;4.10;2.90;;;4.40;99.90;;;;;;5085894;28;20032;-49
2020/12/02 07:15:30;;;;;;;3.15;2.38;;;4.40;99.90;;;;;;5080303;28;20020;-47
2020/12/02 07:18:18;;;;;;;3.05;2.45;;;4.50;99.90;;;;;;5066648;28;20044;-46
2020/12/02 07:20:48;;;;;;;4.55;3.30;;;4.40;99.90;;;;;;5065212;28;20066;-46
2020/12/02 07:23:18;;;;;;;4.38;2.63;;;4.50;99.90;;;;;;5065404;28;20036;-50
2020/12/02 07:25:44;;;;;;;3.55;2.90;;;4.50;99.90;;;;;;5066082;28;20060;-47
2020/12/02 07:28:18;;;;;;;4.22;2.88;;;4.40;99.90;;;;;;5065867;28;20051;-48
2020/12/02 07:30:45;;;;;;;3.33;2.67;;;4.30;99.90;;;;;;5065811;28;20940;-46
2020/12/02 07:33:26;;;;;;;3.47;2.70;;;4.20;99.90;;;;;;5065499;28;20024;-47
2020/12/02 07:36:11;;;;;;;3.35;2.83;;;4.30;99.90;;;;;;5066098;28;20033;-46
2020/12/02 07:38:37;;;;;;;4.10;2.50;;;4.30;99.90;;;;;;5065798;28;20475;-46
2020/12/02 07:41:22;;;;;;;4.38;2.90;;;4.40;99.90;;;;;;5063982;28;20032;-48
2020/12/02 07:43:49;;;;;;;4.18;2.60;;;4.40;99.90;;;;;;5065604;28;20130;-47
2020/12/02 07:46:16;;;;;;;3.53;2.67;;;4.30;99.90;;;;;;5065609;28;20483;-47
2020/12/02 07:48:43;;;;;;;3.80;2.80;;;4.20;99.90;;;;;;5065930;28;20025;-49
2020/12/02 07:51:25;;;;;;;4.10;3.10;;;4.30;99.90;;;;;;5078549;28;20063;-47
2020/12/02 07:54:27;;;;;;;3.78;2.50;;;4.10;99.90;;;;;;5085941;28;20028;-46
2020/12/02 07:56:54;;;;;;;3.75;2.75;;;4.00;99.90;;;;;;5020377;28;20462;-47
2020/12/02 07:59:28;;;;;;;3.40;2.80;;;4.20;99.90;;;;;;5060565;28;20049;-46
2020/12/02 08:01:57;;;;;;;;;;;4.20;99.90;;;;;;5084131;28;20490;-47
2020/12/02 08:04:22;;;;;;;6.68;2.88;;;4.20;99.90;;;;;;5079616;28;19913;-47
2020/12/02 08:07:05;;;;;;;4.05;2.90;;;4.20;99.90;;;;;;5073396;28;20047;-47
2020/12/02 08:09:42;;;;;;;4.43;2.67;;;4.20;99.90;;;;;;5068446;28;20032;-49
2020/12/02 08:12:19;;;;;;;3.72;2.42;;;4.20;99.90;;;;;;5066860;28;20527;-47
2020/12/02 08:14:57;;;;;;;3.72;2.67;;;4.30;99.90;;;;;;5076831;28;20460;-47
2020/12/02 08:17:26;;;;;;;3.17;2.47;;;4.40;99.90;;;;;;5079210;28;20050;-48
2020/12/02 08:19:54;;;;;;;3.67;2.60;;;4.40;99.90;;;;;;5080967;28;20028;-47
2020/12/02 08:22:46;;;;;;;3.08;2.40;;;4.40;99.90;;;;;;5068405;28;20054;-46
2020/12/02 08:25:26;;;;;;;4.22;2.45;;;4.40;99.90;;;;;;5075021;28;20586;-49
2020/12/02 08:27:56;;;;;;;3.80;2.80;;;4.40;99.90;;;;;;5071245;28;20578;-46
2020/12/02 08:30:25;;;;;;;3.88;2.85;;;4.30;99.90;;;;;;5080068;28;20032;-49
2020/12/02 08:32:59;;;;;;;3.42;2.53;;;4.50;99.90;;;;;;5083503;28;20032;-47
2020/12/02 08:35:28;;;;;;;;;;;4.50;99.90;;;;;;5082629;28;20032;-49
2020/12/02 08:37:58;;;;;;;3.40;2.50;;;4.50;99.90;;;;;;5089008;28;20344;-49
2020/12/02 08:40:41;;;;;;;3.78;2.72;;;4.60;99.90;;;;;;5068881;28;20384;-47
2020/12/02 08:43:36;;;;;;;3.78;3.00;;;4.60;99.90;;;;;;5068514;28;20506;-48
2020/12/02 08:46:25;;;;;;;4.78;3.17;;;4.50;99.90;;;;;;5072518;28;20046;-46
2020/12/02 08:48:57;;;;;;;3.17;2.80;;;4.60;99.90;;;;;;5070275;28;20052;-48
2020/12/02 08:51:24;;;;;;;3.85;2.67;;;4.70;99.90;;;;;;5066414;28;20579;-47
2020/12/02 08:53:52;;;;;;;2.88;2.10;;;4.70;99.90;;;;;;5067634;28;20020;-46
2020/12/02 08:56:44;;;;;;;3.53;2.58;;;4.70;99.90;;;;;;5068497;28;20021;-47
2020/12/02 08:59:12;;;;;;;3.28;2.50;;;4.80;99.90;;;;;;5065119;28;20028;-47
2020/12/02 09:01:38;;;;;;;4.15;2.45;;;4.80;99.90;;;;;;5068284;28;20048;-48
2020/12/02 09:04:04;;;;;;;4.28;2.35;;;4.80;99.90;;;;;;5066287;28;20035;-47
2020/12/02 09:06:31;;;;;;;4.10;2.75;;;4.80;99.90;;;;;;5066699;28;20461;-47
2020/12/02 09:08:57;;;;;;;4.00;2.80;;;4.60;99.90;;;;;;5073652;28;20020;-46
2020/12/02 09:11:41;;;;;;;4.50;3.00;;;4.60;99.90;;;;;;5086096;28;20055;-49
2020/12/02 09:14:06;;;;;;;4.77;3.20;;;4.70;99.90;;;;;;5086269;28;20051;-47
2020/12/02 09:16:35;;;;;;;7.18;3.83;;;4.60;99.90;;;;;;5086934;28;20281;-46
2020/12/02 09:19:02;;;;;;;5.53;3.90;;;4.50;99.90;;;;;;5086546;28;20039;-45
2020/12/02 09:21:29;;;;;;;4.45;3.35;;;4.60;99.90;;;;;;5085887;28;20062;-47
2020/12/02 09:23:58;;;;;;;3.97;2.78;;;4.50;99.90;;;;;;5086564;28;20624;-46
2020/12/02 09:26:26;;;;;;;4.32;3.13;;;4.70;99.90;;;;;;5086830;28;20769;-46
2020/12/02 09:28:52;;;;;;;3.90;2.67;;;4.70;99.90;;;;;;5085166;28;20494;-48
2020/12/02 09:31:20;;;;;;;7.53;4.50;;;4.70;99.90;;;;;;5086385;28;20239;-46
2020/12/02 09:33:49;;;;;;;8.10;4.75;;;4.90;99.90;;;;;;5086172;28;20254;-47
2020/12/02 09:36:15;;;;;;;5.93;3.45;;;4.80;99.90;;;;;;5085930;28;20020;-47
2020/12/02 09:38:41;;;;;;;10.02;5.82;;;4.90;99.90;;;;;;5086107;28;20024;-46
2020/12/02 09:41:33;;;;;;;12.63;5.38;;;4.70;99.90;;;;;;5085223;28;20075;-47
2020/12/02 09:44:09;;;;;;;8.65;4.63;;;4.70;99.90;;;;;;5048866;28;20136;-47
2020/12/02 09:46:35;;;;;;;9.07;4.53;;;4.80;99.90;;;;;;5066185;28;20053;-47
2020/12/02 09:49:02;;;;;;;7.68;4.50;;;4.70;99.90;;;;;;5066740;28;20060;-46
2020/12/02 09:51:30;;;;;;;8.05;4.70;;;4.70;99.90;;;;;;5065937;28;20522;-50
2020/12/02 09:53:56;;;;;;;7.13;4.40;;;4.70;99.90;;;;;;5065661;28;20095;-46
2020/12/02 09:56:22;;;;;;;6.30;4.03;;;4.70;99.90;;;;;;5065665;28;20028;-47
2020/12/02 09:58:49;;;;;;;6.28;3.60;;;4.50;99.90;;;;;;5065754;28;20402;-46
2020/12/02 10:01:23;;;;;;;5.70;3.50;;;4.60;99.90;;;;;;5065460;28;20093;-47
2020/12/02 10:04:14;;;;;;;4.82;3.13;;;4.80;99.90;;;;;;5065785;28;20032;-47
2020/12/02 10:07:30;;;;;;;4.40;2.92;;;4.70;99.90;;;;;;5065802;28;20171;-48
2020/12/02 10:10:08;;;;;;;4.75;2.85;;;4.80;99.90;;;;;;5031443;28;20067;-48
2020/12/02 10:12:39;;;;;;;3.35;2.60;;;4.90;99.90;;;;;;5065526;28;20758;-48
2020/12/02 10:15:20;;;;;;;3.65;2.33;;;5.00;99.90;;;;;;5065366;28;20102;-48
2020/12/02 10:18:21;;;;;;;4.28;2.45;;;4.80;99.90;;;;;;5065430;28;20020;-47
2020/12/02 10:20:49;;;;;;;3.63;2.30;;;4.80;99.90;;;;;;5064655;28;20417;-47
2020/12/02 10:23:32;;;;;;;5.10;2.97;;;4.70;99.90;;;;;;5065047;28;20510;-47
2020/12/02 10:26:23;;;;;;;5.25;3.47;;;4.60;99.90;;;;;;5066052;28;20034;-47
2020/12/02 10:28:57;;;;;;;4.88;3.15;;;4.60;99.90;;;;;;5066406;28;20378;-47
2020/12/02 10:31:38;;;;;;;4.72;2.88;;;4.70;99.90;;;;;;5065001;28;20119;-49
2020/12/02 10:34:27;;;;;;;7.30;3.70;;;4.70;99.90;;;;;;5067403;28;20032;-46
2020/12/02 10:37:01;;;;;;;6.93;3.60;;;4.70;99.90;;;;;;5064892;28;20024;-47
2020/12/02 10:39:32;;;;;;;6.30;3.35;;;4.70;99.90;;;;;;5068799;28;20020;-46
2020/12/02 10:42:23;;;;;;;5.20;2.72;;;4.80;99.90;;;;;;5074418;28;20028;-47
2020/12/02 10:45:02;;;;;;;5.78;3.05;;;4.80;99.90;;;;;;5078416;28;20453;-48
2020/12/02 10:47:47;;;;;;;5.53;3.55;;;4.70;99.90;;;;;;5066521;28;20028;-48
2020/12/02 10:50:15;;;;;;;5.85;3.63;;;4.70;99.90;;;;;;5068814;28;20548;-47
2020/12/02 10:52:45;;;;;;;4.15;2.90;;;4.60;99.90;;;;;;5068138;28;20060;-49
2020/12/02 10:55:14;;;;;;;5.25;3.45;;;4.80;99.90;;;;;;5064938;28;20028;-50
2020/12/02 10:57:41;;;;;;;5.63;3.42;;;4.70;99.90;;;;;;5064436;28;20487;-49
2020/12/02 11:00:10;;;;;;;4.88;2.85;;;4.60;99.90;;;;;;5064692;28;20028;-49
2020/12/02 11:02:36;;;;;;;6.22;3.47;;;4.70;99.90;;;;;;5074468;28;20548;-49
2020/12/02 11:05:05;;;;;;;5.07;3.47;;;4.60;99.90;;;;;;5077483;28;20082;-49
2020/12/02 11:07:34;;;;;;;9.50;4.78;;;4.60;99.90;;;;;;5069448;28;20068;-46
2020/12/02 11:10:30;;;;;;;10.60;5.30;;;4.70;99.90;;;;;;5076717;28;20028;-50
2020/12/02 11:13:01;;;;;;;8.88;4.40;;;4.70;99.90;;;;;;5068913;28;20032;-48
2020/12/02 11:15:50;;;;;;;7.53;4.13;;;4.70;99.90;;;;;;5084826;28;20026;-47
2020/12/02 11:18:32;;;;;;;6.30;3.42;;;4.90;99.90;;;;;;5068067;28;20060;-46
2020/12/02 11:21:04;;;;;;;4.93;2.80;;;4.80;99.90;;;;;;5084295;28;20017;-48
2020/12/02 11:23:55;;;;;;;4.53;2.80;;;4.90;99.90;;;;;;5084570;28;20068;-46
2020/12/02 11:26:30;;;;;;;4.30;2.85;;;4.80;99.90;;;;;;5076433;28;20031;-47
2020/12/02 11:28:59;;;;;;;3.63;2.40;;;4.80;99.90;;;;;;5073887;28;20020;-47
2020/12/02 11:31:49;;;;;;;3.55;2.33;;;4.90;99.90;;;;;;5094449;28;20650;-47
2020/12/02 11:34:38;;;;;;;4.10;2.42;;;4.80;99.90;;;;;;5105867;28;20445;-51
2020/12/02 11:37:08;;;;;;;5.85;3.60;;;4.90;99.90;;;;;;5074680;28;20036;-48
2020/12/02 11:39:57;;;;;;;6.97;3.60;;;4.80;99.90;;;;;;5062505;28;20020;-46
2020/12/02 11:42:26;;;;;;;10.20;5.07;;;4.70;99.90;;;;;;5079714;28;20081;-46
2020/12/02 11:44:59;;;;;;;8.07;3.92;;;4.80;99.90;;;;;;5085978;28;20045;-46
2020/12/02 11:47:37;;;;;;;6.78;3.47;;;4.90;99.90;;;;;;5081698;28;20232;-46
2020/12/02 11:50:32;;;;;;;6.22;3.45;;;5.00;99.90;;;;;;5073665;28;20036;-51
2020/12/02 11:53:17;;;;;;;6.80;3.25;;;5.00;99.90;;;;;;5088489;28;20465;-47
2020/12/02 11:55:43;;;;;;;;;;;5.10;99.90;;;;;;5071682;28;20491;-48
2020/12/02 11:58:11;;;;;;;8.18;3.95;;;5.10;99.90;;;;;;5067255;28;20006;-46
2020/12/02 12:00:37;;;;;;;9.88;5.32;;;5.00;99.90;;;;;;5067533;28;20029;-48
2020/12/02 12:03:22;;;;;;;8.00;4.43;;;4.80;99.90;;;;;;5067524;28;20036;-48
2020/12/02 12:06:14;;;;;;;7.22;4.35;;;4.90;99.90;;;;;;5067284;28;20028;-50
2020/12/02 12:08:59;;;;;;;6.75;3.88;;;4.90;99.90;;;;;;5078164;28;20486;-47
2020/12/02 12:11:35;;;;;;;5.38;3.28;;;5.00;99.90;;;;;;5066519;28;20589;-47
2020/12/02 12:14:18;;;;;;;5.35;3.28;;;5.10;99.90;;;;;;5069117;28;20135;-47
2020/12/02 12:16:55;;;;;;;4.80;2.80;;;5.10;99.90;;;;;;5068774;28;20545;-49
2020/12/02 12:19:49;;;;;;;5.90;3.60;;;5.10;99.90;;;;;;5069167;28;20028;-47
2020/12/02 12:22:30;;;;;;;7.28;3.90;;;5.10;99.90;;;;;;5069708;28;20551;-50
2020/12/02 12:25:01;;;;;;;6.28;3.58;;;5.30;99.90;;;;;;5068683;28;20071;-50
2020/12/02 12:27:29;;;;;;;5.22;3.03;;;5.30;99.90;;;;;;5067659;28;20138;-50
2020/12/02 12:29:54;;;;;;;5.47;3.15;;;5.30;99.90;;;;;;5103321;28;20039;-51
2020/12/02 12:32:49;;;;;;;4.18;2.83;;;5.30;99.90;;;;;;5088970;28;20016;-51
2020/12/02 12:35:25;;;;;;;6.35;3.70;;;5.40;99.90;;;;;;5074903;28;20062;-51
2020/12/02 12:38:09;;;;;;;6.03;3.83;;;5.30;99.90;;;;;;5088784;28;20161;-50
2020/12/02 12:40:44;;;;;;;5.95;3.67;;;5.20;99.90;;;;;;5084268;28;20060;-49
2020/12/02 12:43:13;;;;;;;5.35;3.33;;;5.10;99.90;;;;;;5068128;28;20610;-51
2020/12/02 12:45:44;;;;;;;8.23;4.55;;;5.40;99.90;;;;;;5067423;28;20052;-48
2020/12/02 12:48:16;;;;;;;8.88;4.45;;;5.40;99.90;;;;;;5068374;28;20029;-49
2020/12/02 12:50:49;;;;;;;7.13;4.03;;;5.60;99.90;;;;;;5068601;28;20154;-50
2020/12/02 12:53:17;;;;;;;7.90;4.07;;;5.40;99.90;;;;;;5067902;28;20093;-51
2020/12/02 12:55:43;;;;;;;6.80;3.55;;;5.30;99.90;;;;;;5065411;28;20024;-47
2020/12/02 12:58:15;;;;;;;7.47;3.78;;;5.30;99.90;;;;;;5065430;28;20025;-48
2020/12/02 13:00:51;;;;;;;10.93;5.18;;;5.20;99.90;;;;;;5068175;28;20514;-49
2020/12/02 13:03:19;;;;;;;9.75;5.13;;;5.20;99.90;;;;;;5068022;28;20033;-50
2020/12/02 13:06:22;;;;;;;9.25;4.90;;;5.10;99.90;;;;;;5068676;28;20062;-46
2020/12/02 13:09:10;;;;;;;7.63;4.07;;;5.20;99.90;;;;;;5068325;28;20495;-48
2020/12/02 13:11:51;;;;;;;7.20;4.07;;;5.30;99.90;;;;;;5066303;28;20033;-49
2020/12/02 13:14:24;;;;;;;7.47;4.00;;;5.20;99.90;;;;;;5066144;28;20036;-46
2020/12/02 13:17:29;;;;;;;4.93;3.13;;;5.20;99.90;;;;;;5066585;28;20029;-47
2020/12/02 13:19:55;;;;;;;5.18;3.40;;;5.20;99.90;;;;;;5048701;28;20036;-47
2020/12/02 13:22:58;;;;;;;7.07;3.78;;;5.20;99.90;;;;;;5066254;28;20526;-47
2020/12/02 13:25:28;;;;;;;5.40;3.00;;;5.30;99.90;;;;;;5066220;28;20032;-46
2020/12/02 13:28:34;;;;;;;4.68;3.00;;;5.30;99.90;;;;;;5066498;28;20016;-47
2020/12/02 13:31:13;;;;;;;4.40;2.90;;;5.20;99.90;;;;;;5058678;28;20051;-49